createdAt,value
2018-06-01T00:00:40.323Z,2.50
2018-06-01T00:03:06.686Z,2.17
2018-06-01T00:05:33.012Z,2.27
2018-06-01T00:07:59.398Z,2.33
2018-06-01T00:10:25.754Z,2.77
2018-06-01T00:12:52.190Z,2.57
2018-06-01T00:15:18.622Z,2.43
2018-06-01T00:17:44.970Z,2.30
2018-06-01T00:20:11.389Z,2.23
2018-06-01T00:22:37.718Z,2.63
2018-06-01T00:25:04.073Z,2.40
2018-06-01T00:27:30.461Z,2.43
2018-06-01T00:29:56.812Z,2.90
2018-06-01T00:32:23.152Z,2.20
2018-06-01T00:34:49.511Z,2.43
2018-06-01T00:37:15.820Z,2.87
2018-06-01T00:39:42.139Z,2.30
2018-06-01T00:42:08.506Z,2.50
2018-06-01T00:44:35.712Z,2.43
2018-06-01T00:47:02.088Z,2.43
2018-06-01T00:49:28.520Z,2.80
2018-06-01T00:51:54.921Z,2.50
2018-06-01T00:54:21.279Z,2.27
2018-06-01T00:56:47.619Z,2.57
2018-06-01T00:59:13.993Z,2.53
2018-06-01T01:01:40.324Z,2.30
2018-06-01T01:04:06.705Z,2.50
2018-06-01T01:06:33.053Z,2.50
2018-06-01T01:08:59.430Z,2.80
2018-06-01T01:11:25.762Z,2.43
2018-06-01T01:13:52.116Z,2.50
2018-06-01T01:16:18.498Z,2.47
2018-06-01T01:18:44.900Z,2.27
2018-06-01T01:21:11.212Z,2.50
2018-06-01T01:23:37.629Z,2.70
2018-06-01T01:26:03.982Z,2.50
2018-06-01T01:28:30.373Z,2.63
2018-06-01T01:30:56.807Z,2.40
2018-06-01T01:33:23.173Z,2.47
2018-06-01T01:35:49.534Z,2.47
2018-06-01T01:38:16.826Z,2.77
2018-06-01T01:40:43.293Z,2.43
2018-06-01T01:43:09.564Z,2.90
2018-06-01T01:45:35.930Z,2.93
2018-06-01T01:48:02.374Z,2.67
2018-06-01T01:50:28.715Z,2.70
2018-06-01T01:52:55.074Z,2.33
2018-06-01T01:55:21.429Z,2.30
2018-06-01T01:57:47.745Z,2.40
2018-06-01T02:00:14.241Z,2.80
2018-06-01T02:02:40.629Z,2.40
2018-06-01T02:05:06.984Z,2.60
2018-06-01T02:07:33.392Z,3.33
2018-06-01T02:09:59.730Z,3.00
2018-06-01T02:12:26.100Z,2.70
2018-06-01T02:14:52.534Z,3.20
2018-06-01T02:17:18.906Z,3.07
2018-06-01T02:19:45.271Z,3.00
2018-06-01T02:22:11.695Z,3.00
2018-06-01T02:24:38.052Z,2.70
2018-06-01T02:27:04.413Z,3.13
2018-06-01T02:29:30.808Z,3.00
2018-06-01T02:31:57.163Z,2.93
2018-06-01T02:34:23.506Z,3.23
2018-06-01T02:36:49.923Z,3.00
2018-06-01T02:39:16.253Z,3.20
2018-06-01T02:41:42.687Z,3.17
2018-06-01T02:44:09.224Z,3.03
2018-06-01T02:46:35.607Z,3.23
2018-06-01T02:49:02.024Z,3.30
2018-06-01T02:51:28.404Z,3.67
2018-06-01T02:53:54.783Z,4.17
2018-06-01T02:56:21.141Z,4.20
2018-06-01T02:58:47.678Z,4.13
2018-06-01T03:01:14.062Z,4.37
2018-06-01T03:03:40.398Z,3.47
2018-06-01T03:06:06.771Z,3.93
2018-06-01T03:08:33.100Z,3.90
2018-06-01T03:11:00.065Z,3.90
2018-06-01T03:13:26.406Z,4.23
2018-06-01T03:15:53.698Z,3.60
2018-06-01T03:18:20.049Z,3.47
2018-06-01T03:20:46.365Z,3.90
2018-06-01T03:23:12.786Z,3.43
2018-06-01T03:25:39.129Z,3.23
2018-06-01T03:28:05.462Z,3.40
2018-06-01T03:30:31.844Z,3.27
2018-06-01T03:32:58.234Z,3.23
2018-06-01T03:35:24.568Z,4.00
2018-06-01T03:37:50.965Z,3.90
2018-06-01T03:40:17.399Z,4.50
2018-06-01T03:42:43.746Z,4.90
2018-06-01T03:45:10.261Z,4.60
2018-06-01T03:47:36.632Z,4.37
2018-06-01T03:50:03.025Z,3.77
2018-06-01T03:52:29.439Z,5.10
2018-06-01T03:54:55.778Z,4.57
2018-06-01T03:57:22.150Z,5.07
2018-06-01T03:59:48.561Z,4.80
2018-06-01T04:02:14.892Z,4.80
2018-06-01T04:04:42.106Z,5.27
2018-06-01T04:07:08.483Z,4.63
2018-06-01T04:09:34.827Z,4.80
2018-06-01T04:12:01.240Z,4.90
2018-06-01T04:14:27.609Z,4.67
2018-06-01T04:16:54.215Z,7.43
2018-06-01T04:19:20.582Z,6.50
2018-06-01T04:21:46.975Z,4.80
2018-06-01T04:24:14.293Z,3.73
2018-06-01T04:26:40.644Z,3.37
2018-06-01T04:29:07.017Z,3.17
2018-06-01T04:31:33.631Z,3.13
2018-06-01T04:33:59.985Z,2.80
2018-06-01T04:36:26.417Z,3.23
2018-06-01T04:38:52.929Z,3.10
2018-06-01T04:41:19.487Z,3.20
2018-06-01T04:43:45.864Z,3.17
2018-06-01T04:46:12.216Z,2.80
2018-06-01T04:48:38.581Z,2.53
2018-06-01T04:51:04.965Z,3.10
2018-06-01T04:53:31.296Z,2.40
2018-06-01T04:55:57.629Z,2.60
2018-06-01T04:58:24.030Z,3.03
2018-06-01T05:00:50.408Z,2.70
2018-06-01T05:03:16.757Z,2.67
2018-06-01T05:05:43.246Z,3.20
2018-06-01T05:08:09.645Z,2.87
2018-06-01T05:10:36.024Z,3.23
2018-06-01T05:13:02.415Z,2.73
2018-06-01T05:15:28.821Z,3.10
2018-06-01T05:17:55.169Z,3.30
2018-06-01T05:20:21.556Z,3.23
2018-06-01T05:22:47.937Z,3.20
2018-06-01T05:25:14.376Z,3.17
2018-06-01T05:27:40.746Z,3.00
2018-06-01T05:30:07.214Z,6.07
2018-06-01T05:32:33.594Z,3.17
2018-06-01T05:35:00.076Z,3.10
2018-06-01T05:37:27.053Z,3.50
2018-06-01T05:39:53.567Z,2.90
2018-06-01T05:42:20.042Z,3.00
2018-06-01T05:44:46.410Z,3.43
2018-06-01T05:47:12.794Z,3.20
2018-06-01T05:49:39.182Z,3.00
2018-06-01T05:52:05.539Z,2.80
2018-06-01T05:54:31.896Z,3.30
2018-06-01T05:56:58.241Z,8.33
2018-06-01T05:59:24.632Z,8.20
2018-06-01T06:01:51.042Z,7.73
2018-06-01T06:04:17.387Z,16.70
2018-06-01T06:06:43.718Z,43.77
2018-06-01T06:09:10.152Z,20.93
2018-06-01T06:11:36.690Z,11.70
2018-06-01T06:14:03.019Z,9.90
2018-06-01T06:16:29.408Z,5.63
2018-06-01T06:18:55.772Z,6.03
2018-06-01T06:21:22.218Z,36.27
2018-06-01T06:23:48.585Z,75.63
2018-06-01T06:26:15.082Z,57.27
2018-06-01T06:28:41.661Z,93.83
2018-06-01T06:31:08.049Z,86.53
2018-06-01T06:33:34.425Z,103.13
2018-06-01T06:36:00.789Z,70.30
2018-06-01T06:38:27.125Z,33.87
2018-06-01T06:40:53.520Z,21.00
2018-06-01T06:43:19.915Z,33.73
2018-06-01T06:45:46.486Z,34.17
2018-06-01T06:48:12.829Z,16.07
2018-06-01T06:50:39.216Z,225.50
2018-06-01T06:53:05.584Z,164.33
2018-06-01T06:55:31.938Z,243.23
2018-06-01T06:57:58.414Z,400.60
2018-06-01T07:00:24.744Z,258.30
2018-06-01T07:02:51.121Z,272.50
2018-06-01T07:05:17.480Z,187.10
2018-06-01T07:07:43.878Z,166.27
2018-06-01T07:10:10.233Z,111.13
2018-06-01T07:12:36.616Z,112.77
2018-06-01T07:15:03.015Z,20.33
2018-06-01T07:17:29.402Z,36.40
2018-06-01T07:19:55.778Z,19.93
2018-06-01T07:22:22.146Z,21.27
2018-06-01T07:24:49.047Z,16.20
2018-06-01T07:27:15.398Z,21.27
2018-06-01T07:29:41.741Z,11.67
2018-06-01T07:32:08.091Z,6.50
2018-06-01T07:34:34.457Z,21.40
2018-06-01T07:37:00.843Z,14.17
2018-06-01T07:39:27.376Z,13.23
2018-06-01T07:41:53.908Z,10.53
2018-06-01T07:44:20.346Z,3.60
2018-06-01T07:46:46.724Z,20.30
2018-06-01T07:49:13.341Z,13.53
2018-06-01T07:51:39.707Z,5.93
2018-06-01T07:54:06.070Z,7.73
2018-06-01T07:56:32.407Z,3.97
2018-06-01T07:58:58.772Z,13.57
2018-06-01T08:01:25.148Z,11.70
2018-06-01T08:03:51.665Z,10.63
2018-06-01T08:06:18.060Z,5.73
2018-06-01T08:08:44.626Z,6.03
2018-06-01T08:11:10.983Z,8.33
2018-06-01T08:13:37.334Z,9.70
2018-06-01T08:16:03.771Z,15.40
2018-06-01T08:18:30.280Z,7.43
2018-06-01T08:20:56.680Z,6.90
2018-06-01T08:23:23.197Z,16.07
2018-06-01T08:25:49.541Z,12.73
2018-06-01T08:28:15.893Z,7.83
2018-06-01T08:30:42.271Z,9.47
2018-06-01T08:33:08.660Z,4.80
2018-06-01T08:35:35.192Z,6.30
2018-06-01T08:38:01.604Z,6.03
2018-06-01T08:40:27.977Z,7.97
2018-06-01T08:42:54.320Z,5.50
2018-06-01T08:45:20.666Z,5.17
2018-06-01T08:47:47.039Z,5.70
2018-06-01T08:50:13.547Z,7.33
2018-06-01T08:52:39.889Z,4.67
2018-06-01T08:55:06.267Z,6.77
2018-06-01T08:57:32.662Z,5.93
2018-06-01T08:59:59.001Z,4.60
2018-06-01T09:02:25.405Z,4.63
2018-06-01T09:04:51.800Z,7.00
2018-06-01T09:07:18.233Z,5.50
2018-06-01T09:09:44.624Z,5.60
2018-06-01T09:12:10.961Z,5.17
2018-06-01T09:14:37.472Z,5.53
2018-06-01T09:17:03.943Z,33.70
2018-06-01T09:19:30.290Z,14.97
2018-06-01T09:21:56.669Z,5.17
2018-06-01T09:24:23.106Z,8.77
2018-06-01T09:26:49.568Z,4.57
2018-06-01T09:29:15.936Z,4.30
2018-06-01T09:31:42.962Z,4.70
2018-06-01T09:34:09.351Z,3.83
2018-06-01T09:36:35.725Z,3.93
2018-06-01T09:39:02.180Z,4.70
2018-06-01T09:41:28.742Z,5.37
2018-06-01T09:43:55.111Z,3.90
2018-06-01T09:46:21.464Z,3.40
2018-06-01T09:48:48.744Z,3.57
2018-06-01T09:51:15.227Z,3.73
2018-06-01T09:53:41.573Z,3.67
2018-06-01T09:56:08.058Z,3.57
2018-06-01T09:58:34.425Z,4.47
2018-06-01T10:01:01.029Z,5.77
2018-06-01T10:03:27.408Z,3.53
2018-06-01T10:05:53.842Z,4.30
2018-06-01T10:08:20.411Z,4.47
2018-06-01T10:10:46.794Z,3.90
2018-06-01T10:13:13.266Z,4.17
2018-06-01T10:15:39.770Z,3.70
2018-06-01T10:18:06.145Z,3.73
2018-06-01T10:20:34.588Z,3.57
2018-06-01T10:23:01.032Z,3.70
2018-06-01T10:25:27.386Z,4.10
2018-06-01T10:27:53.808Z,3.80
2018-06-01T10:30:20.183Z,3.57
2018-06-01T10:32:46.522Z,3.50
2018-06-01T10:35:13.544Z,3.60
2018-06-01T10:37:39.934Z,4.03
2018-06-01T10:40:06.282Z,3.57
2018-06-01T10:42:32.625Z,3.93
2018-06-01T10:44:58.988Z,3.67
2018-06-01T10:47:25.374Z,4.07
2018-06-01T10:49:51.727Z,3.77
2018-06-01T10:52:18.076Z,4.60
2018-06-01T10:54:44.428Z,3.83
2018-06-01T10:57:10.792Z,4.10
2018-06-01T10:59:37.761Z,3.93
2018-06-01T11:02:04.178Z,3.60
2018-06-01T11:04:30.568Z,3.27
2018-06-01T11:06:56.943Z,3.67
2018-06-01T11:09:23.290Z,3.60
2018-06-01T11:11:49.633Z,3.90
2018-06-01T11:14:16.022Z,4.03
2018-06-01T11:16:42.382Z,3.97
2018-06-01T11:19:08.711Z,3.37
2018-06-01T11:21:35.383Z,4.20
2018-06-01T11:24:01.714Z,3.90
2018-06-01T11:26:28.097Z,4.20
2018-06-01T11:28:54.454Z,4.30
2018-06-01T11:31:20.828Z,3.90
2018-06-01T11:34:12.352Z,4.33
2018-06-01T11:36:41.387Z,3.80
2018-06-01T11:39:08.005Z,4.43
2018-06-01T11:41:34.414Z,4.00
2018-06-01T11:44:00.764Z,4.10
2018-06-01T11:46:27.126Z,4.70
2018-06-01T11:48:53.489Z,4.10
2018-06-01T11:51:19.945Z,4.00
2018-06-01T11:53:46.264Z,4.17
2018-06-01T11:56:12.633Z,4.47
2018-06-01T11:58:39.030Z,4.20
2018-06-01T12:01:05.410Z,3.87
2018-06-01T12:03:31.776Z,4.40
2018-06-01T12:05:58.178Z,3.90
2018-06-01T12:08:24.534Z,3.80
2018-06-01T12:10:51.088Z,4.50
2018-06-01T12:13:17.439Z,4.10
2018-06-01T12:15:43.781Z,3.93
2018-06-01T12:18:10.144Z,3.87
2018-06-01T12:20:36.531Z,4.20
2018-06-01T12:23:03.083Z,3.80
2018-06-01T12:25:29.451Z,4.17
2018-06-01T12:27:55.859Z,4.07
2018-06-01T12:30:22.332Z,3.97
2018-06-01T12:32:48.684Z,4.20
2018-06-01T12:35:15.018Z,3.97
2018-06-01T12:37:42.387Z,4.30
2018-06-01T12:40:08.734Z,4.70
2018-06-01T12:42:35.083Z,4.00
2018-06-01T12:45:01.474Z,3.97
2018-06-01T12:47:27.810Z,4.63
2018-06-01T12:49:54.159Z,3.90
2018-06-01T12:52:20.522Z,4.60
2018-06-01T12:54:46.874Z,4.30
2018-06-01T12:57:13.229Z,3.77
2018-06-01T12:59:39.690Z,4.13
2018-06-01T13:02:06.075Z,4.23
2018-06-01T13:04:32.467Z,4.30
2018-06-01T13:06:58.960Z,4.23
2018-06-01T13:09:25.447Z,3.93
2018-06-01T13:11:51.851Z,4.13
2018-06-01T13:14:18.209Z,3.77
2018-06-01T13:16:44.551Z,4.20
2018-06-01T13:19:11.060Z,4.53
2018-06-01T13:21:37.461Z,4.23
2018-06-01T13:24:04.311Z,4.10
2018-06-01T13:26:30.640Z,4.57
2018-06-01T13:28:57.003Z,5.20
2018-06-01T13:31:23.402Z,6.73
2018-06-01T13:33:49.931Z,4.60
2018-06-01T13:36:16.453Z,6.20
2018-06-01T13:38:42.881Z,5.37
2018-06-01T13:41:09.265Z,9.00
2018-06-01T13:43:35.829Z,10.70
2018-06-01T13:46:02.317Z,11.57
2018-06-01T13:48:28.898Z,9.10
2018-06-01T13:50:55.228Z,10.77
2018-06-01T13:53:21.568Z,8.07
2018-06-01T13:55:48.109Z,7.20
2018-06-01T13:58:14.465Z,6.37
2018-06-01T14:00:40.814Z,8.20
2018-06-01T14:03:07.166Z,4.27
2018-06-01T14:05:33.574Z,5.97
2018-06-01T14:08:00.034Z,5.90
2018-06-01T14:10:26.416Z,5.87
2018-06-01T14:12:52.905Z,5.13
2018-06-01T14:15:19.334Z,5.33
2018-06-01T14:17:45.918Z,5.37
2018-06-01T14:20:12.309Z,5.30
2018-06-01T14:22:38.668Z,5.30
2018-06-01T14:25:05.129Z,5.13
2018-06-01T14:27:31.473Z,5.00
2018-06-01T14:29:57.826Z,4.70
2018-06-01T14:32:24.433Z,4.33
2018-06-01T14:34:51.109Z,4.97
2018-06-01T14:37:17.509Z,4.23
2018-06-01T14:39:43.854Z,5.10
2018-06-01T14:42:10.211Z,6.00
2018-06-01T14:44:36.806Z,6.87
2018-06-01T14:47:03.219Z,10.37
2018-06-01T14:49:29.637Z,8.77
2018-06-01T14:51:55.997Z,9.00
2018-06-01T14:54:22.395Z,7.80
2018-06-01T14:56:48.915Z,7.70
2018-06-01T14:59:15.273Z,6.10
2018-06-01T15:01:41.656Z,7.63
2018-06-01T15:04:08.074Z,6.77
2018-06-01T15:06:34.467Z,12.90
2018-06-01T15:09:00.871Z,5.87
2018-06-01T15:11:27.230Z,5.93
2018-06-01T15:13:53.673Z,6.03
2018-06-01T15:16:20.028Z,6.20
2018-06-01T15:18:46.497Z,6.67
2018-06-01T15:21:12.836Z,5.50
2018-06-01T15:23:39.185Z,5.57
2018-06-01T15:26:05.513Z,6.87
2018-06-01T15:28:31.863Z,5.00
2018-06-01T15:30:58.513Z,8.10
2018-06-01T15:33:25.018Z,5.83
2018-06-01T15:35:51.349Z,8.70
2018-06-01T15:38:17.689Z,12.33
2018-06-01T15:40:44.052Z,16.03
2018-06-01T15:43:10.450Z,6.23
2018-06-01T15:45:36.833Z,6.07
2018-06-01T15:48:03.254Z,6.50
2018-06-01T15:50:29.625Z,5.17
2018-06-01T15:52:55.945Z,5.40
2018-06-01T15:55:22.287Z,4.73
2018-06-01T15:57:48.648Z,4.70
2018-06-01T16:00:15.013Z,4.63
2018-06-01T16:02:41.369Z,4.83
2018-06-01T16:05:07.747Z,5.17
2018-06-01T16:07:34.110Z,5.33
2018-06-01T16:10:00.444Z,6.70
2018-06-01T16:12:26.811Z,5.70
2018-06-01T16:14:53.201Z,8.47
2018-06-01T16:17:19.600Z,6.93
2018-06-01T16:19:46.112Z,6.37
2018-06-01T16:22:12.451Z,6.50
2018-06-01T16:24:38.806Z,4.97
2018-06-01T16:27:05.209Z,4.50
2018-06-01T16:29:31.578Z,5.33
2018-06-01T16:31:57.946Z,5.67
2018-06-01T16:34:25.129Z,4.60
2018-06-01T16:36:51.486Z,4.50
2018-06-01T16:39:17.861Z,4.70
2018-06-01T16:41:44.236Z,5.07
2018-06-01T16:44:10.583Z,5.70
2018-06-01T16:46:36.939Z,7.27
2018-06-01T16:49:03.385Z,5.70
2018-06-01T16:51:29.766Z,5.80
2018-06-01T16:53:56.110Z,6.57
2018-06-01T16:56:22.459Z,5.40
2018-06-01T16:58:48.782Z,5.40
2018-06-01T17:01:15.109Z,4.80
2018-06-01T17:03:41.434Z,6.00
2018-06-01T17:06:07.850Z,5.13
2018-06-01T17:08:34.169Z,5.60
2018-06-01T17:11:00.500Z,5.17
2018-06-01T17:13:26.831Z,4.80
2018-06-01T17:15:53.163Z,5.10
2018-06-01T17:18:19.547Z,5.13
2018-06-01T17:20:45.887Z,6.70
2018-06-01T17:23:12.232Z,5.10
2018-06-01T17:25:38.583Z,5.73
2018-06-01T17:28:04.966Z,5.20
2018-06-01T17:30:31.325Z,4.97
2018-06-01T17:32:57.672Z,6.33
2018-06-01T17:35:24.009Z,5.00
2018-06-01T17:37:50.396Z,5.90
2018-06-01T17:40:16.770Z,6.33
2018-06-01T17:42:43.135Z,5.10
2018-06-01T17:45:10.294Z,5.33
2018-06-01T17:47:36.658Z,5.20
2018-06-01T17:50:03.118Z,4.93
2018-06-01T17:52:29.577Z,4.90
2018-06-01T17:54:55.982Z,4.70
2018-06-01T17:57:22.409Z,4.97
2018-06-01T17:59:48.815Z,5.20
2018-06-01T18:02:15.193Z,5.27
2018-06-01T18:04:41.597Z,4.67
2018-06-01T18:07:08.076Z,5.10
2018-06-01T18:09:34.416Z,4.57
2018-06-01T18:12:00.794Z,4.00
2018-06-01T18:14:27.284Z,4.57
2018-06-01T18:16:53.642Z,4.37
2018-06-01T18:19:19.987Z,4.30
2018-06-01T18:21:46.354Z,4.63
2018-06-01T18:24:12.702Z,4.70
2018-06-01T18:26:39.113Z,4.77
2018-06-01T18:29:05.496Z,4.70
2018-06-01T18:31:31.913Z,5.40
2018-06-01T18:33:58.257Z,6.37
2018-06-01T18:36:24.637Z,6.43
2018-06-01T18:38:51.021Z,7.30
2018-06-01T18:41:17.407Z,6.60
2018-06-01T18:43:43.786Z,6.40
2018-06-01T18:46:10.123Z,6.43
2018-06-01T18:48:36.466Z,6.20
2018-06-01T18:51:02.803Z,5.10
2018-06-01T18:53:29.161Z,5.20
2018-06-01T18:55:55.502Z,5.10
2018-06-01T18:58:21.965Z,4.83
2018-06-01T19:00:48.319Z,4.80
2018-06-01T19:03:14.833Z,4.50
2018-06-01T19:05:41.692Z,4.97
2018-06-01T19:08:08.214Z,4.80
2018-06-01T19:10:34.560Z,4.20
2018-06-01T19:13:00.940Z,4.60
2018-06-01T19:15:27.373Z,5.10
2018-06-01T19:17:54.546Z,4.57
2018-06-01T19:20:20.979Z,4.87
2018-06-01T19:22:47.334Z,5.63
2018-06-01T19:25:13.680Z,5.30
2018-06-01T19:27:40.042Z,5.43
2018-06-01T19:30:06.441Z,5.17
2018-06-01T19:32:32.768Z,5.33
2018-06-01T19:34:59.713Z,5.20
2018-06-01T19:37:26.091Z,5.40
2018-06-01T19:39:52.446Z,5.13
2018-06-01T19:42:18.783Z,5.70
2018-06-01T19:44:45.211Z,5.50
2018-06-01T19:47:11.574Z,5.90
2018-06-01T19:49:37.915Z,6.20
2018-06-01T19:52:04.265Z,5.20
2018-06-01T19:54:30.638Z,5.10
2018-06-01T19:56:56.967Z,5.20
2018-06-01T19:59:23.311Z,5.33
2018-06-01T20:01:49.785Z,5.37
2018-06-01T20:04:16.526Z,4.80
2018-06-01T20:06:43.093Z,5.03
2018-06-01T20:09:09.923Z,5.67
2018-06-01T20:11:36.911Z,5.70
2018-06-01T20:14:03.525Z,5.73
2018-06-01T20:16:29.887Z,5.40
2018-06-01T20:18:56.260Z,5.20
2018-06-01T20:21:22.605Z,5.53
2018-06-01T20:23:48.947Z,4.93
2018-06-01T20:26:15.282Z,4.90
2018-06-01T20:28:41.657Z,5.80
2018-06-01T20:31:08.127Z,5.40
2018-06-01T20:33:34.470Z,5.10
2018-06-01T20:36:00.804Z,5.20
2018-06-01T20:38:27.160Z,5.87
2018-06-01T20:40:53.525Z,5.30
2018-06-01T20:43:19.980Z,4.57
2018-06-01T20:45:46.356Z,5.30
2018-06-01T20:48:13.134Z,5.13
2018-06-01T20:50:39.735Z,4.70
2018-06-01T20:53:06.260Z,5.37
2018-06-01T20:55:37.532Z,4.43
2018-06-01T20:58:04.165Z,5.10
2018-06-01T21:00:30.577Z,5.10
2018-06-01T21:02:56.965Z,5.20
2018-06-01T21:05:23.374Z,5.10
2018-06-01T21:07:49.766Z,5.23
2018-06-01T21:10:16.122Z,4.77
2018-06-01T21:12:42.465Z,4.90
2018-06-01T21:15:08.813Z,4.97
2018-06-01T21:17:35.178Z,4.53
2018-06-01T21:20:01.609Z,4.87
2018-06-01T21:22:27.937Z,4.80
2018-06-01T21:24:54.322Z,4.73
2018-06-01T21:27:20.729Z,4.70
2018-06-01T21:29:47.164Z,4.57
2018-06-01T21:32:13.522Z,5.07
2018-06-01T21:34:39.857Z,5.10
2018-06-01T21:37:06.206Z,5.20
2018-06-01T21:39:32.670Z,4.80
2018-06-01T21:41:59.610Z,5.20
2018-06-01T21:44:25.941Z,5.07
2018-06-01T21:46:52.284Z,4.93
2018-06-01T21:49:18.605Z,5.03
2018-06-01T21:51:44.926Z,5.47
2018-06-01T21:54:11.265Z,5.20
2018-06-01T21:56:37.732Z,4.97
2018-06-01T21:59:04.136Z,5.30
2018-06-01T22:01:30.491Z,5.00
2018-06-01T22:03:56.844Z,5.67
2018-06-01T22:06:23.234Z,5.27
2018-06-01T22:08:49.588Z,5.83
2018-06-01T22:11:15.898Z,5.93
2018-06-01T22:13:42.230Z,5.83
2018-06-01T22:16:08.689Z,5.10
2018-06-01T22:18:35.044Z,4.93
2018-06-01T22:21:01.455Z,5.50
2018-06-01T22:23:27.805Z,5.77
2018-06-01T22:25:54.165Z,6.17
2018-06-01T22:28:20.526Z,6.17
2018-06-01T22:30:46.875Z,6.07
2018-06-01T22:33:13.218Z,6.40
2018-06-01T22:35:39.555Z,5.77
2018-06-01T22:38:05.913Z,5.17
2018-06-01T22:40:32.253Z,5.17
2018-06-01T22:42:58.592Z,6.20
2018-06-01T22:45:24.931Z,6.03
2018-06-01T22:47:51.294Z,6.00
2018-06-01T22:50:17.627Z,6.07
2018-06-01T22:52:44.026Z,5.67
2018-06-01T22:55:10.409Z,6.17
2018-06-01T22:57:36.822Z,5.60
2018-06-01T23:00:03.228Z,5.90
2018-06-01T23:02:29.503Z,7.07
2018-06-01T23:04:55.909Z,6.50
2018-06-01T23:07:22.249Z,6.13
2018-06-01T23:09:48.591Z,6.73
2018-06-01T23:12:14.948Z,6.83
2018-06-01T23:14:42.105Z,5.87
2018-06-01T23:17:08.474Z,6.27
2018-06-01T23:19:34.828Z,6.07
2018-06-01T23:22:01.153Z,6.43
2018-06-01T23:24:27.592Z,7.03
2018-06-01T23:26:53.954Z,6.87
2018-06-01T23:29:20.302Z,7.00
2018-06-01T23:31:46.658Z,6.63
2018-06-01T23:34:13.046Z,6.40
2018-06-01T23:36:39.410Z,6.53
2018-06-01T23:39:05.810Z,7.03
2018-06-01T23:41:32.218Z,6.43
2018-06-01T23:43:58.582Z,7.23
2018-06-01T23:46:24.982Z,6.43
2018-06-01T23:48:51.415Z,7.07
2018-06-01T23:51:17.782Z,7.10
2018-06-01T23:53:44.164Z,6.50
2018-06-01T23:56:10.507Z,7.17
2018-06-01T23:58:36.841Z,6.97
